createdAt,value
2017-12-12T00:01:28.693Z,3.1
2017-12-12T00:11:27.426Z,3.2
2017-12-12T00:21:26.300Z,3.8
2017-12-12T00:31:26.030Z,3.2
2017-12-12T00:41:28.114Z,3.0
2017-12-12T00:51:28.110Z,3.3
2017-12-12T01:01:26.338Z,2.4
2017-12-12T01:11:25.710Z,2.3
2017-12-12T01:21:27.106Z,2.0
2017-12-12T01:31:27.655Z,2.0
2017-12-12T01:41:26.409Z,2.5
2017-12-12T01:51:28.186Z,2.7
2017-12-12T02:01:29.179Z,2.2
2017-12-12T02:11:26.804Z,2.2
2017-12-12T02:21:27.171Z,1.9
2017-12-12T02:31:28.187Z,2.9
2017-12-12T02:41:26.680Z,2.1
2017-12-12T02:51:27.355Z,2.2
2017-12-12T03:01:26.542Z,2.1
2017-12-12T03:11:26.352Z,1.8
2017-12-12T03:21:27.388Z,2.3
2017-12-12T03:31:25.742Z,2.1
2017-12-12T03:41:28.462Z,2.0
2017-12-12T03:51:26.463Z,2.0
2017-12-12T04:01:27.458Z,1.9
2017-12-12T04:11:25.772Z,2.3
2017-12-12T04:21:26.739Z,2.7
2017-12-12T04:31:27.253Z,2.3
2017-12-12T04:41:25.991Z,2.0
2017-12-12T04:51:27.638Z,2.6
2017-12-12T05:01:25.816Z,2.9
2017-12-12T05:11:26.145Z,2.8
2017-12-12T05:21:25.690Z,2.7
2017-12-12T05:31:26.919Z,2.8
2017-12-12T05:41:27.488Z,2.8
2017-12-12T05:51:27.134Z,2.9
2017-12-12T06:01:26.763Z,3.3
2017-12-12T06:11:25.974Z,2.9
2017-12-12T06:21:28.203Z,2.5
2017-12-12T06:31:27.147Z,2.3
2017-12-12T06:41:26.616Z,1.9
2017-12-12T06:51:28.956Z,2.0
2017-12-12T07:01:27.027Z,2.3
2017-12-12T07:11:28.252Z,2.6
2017-12-12T07:21:25.663Z,2.6
2017-12-12T07:31:29.083Z,2.7
2017-12-12T07:41:26.715Z,3.0
2017-12-12T07:51:27.121Z,3.7
2017-12-12T08:01:28.048Z,3.1
2017-12-12T08:11:27.595Z,2.9
2017-12-12T08:21:26.006Z,3.1
2017-12-12T08:31:26.844Z,2.7
2017-12-12T08:41:26.287Z,2.2
2017-12-12T08:51:26.067Z,3.9
2017-12-12T09:01:30.564Z,2.6
2017-12-12T09:11:26.767Z,3.3
2017-12-12T09:21:26.861Z,2.3
2017-12-12T09:31:26.163Z,2.7
2017-12-12T09:41:28.059Z,2.8
2017-12-12T09:51:26.639Z,2.4
2017-12-12T10:01:25.830Z,3.1
2017-12-12T10:11:26.318Z,2.7
2017-12-12T10:21:26.830Z,2.6
2017-12-12T10:31:26.669Z,2.2
2017-12-12T10:41:26.442Z,2.6
2017-12-12T10:51:25.959Z,2.9
2017-12-12T11:01:26.557Z,2.7
2017-12-12T11:11:25.722Z,3.0
2017-12-12T11:21:26.392Z,3.3
2017-12-12T11:31:25.686Z,2.8
2017-12-12T11:41:26.876Z,3.6
2017-12-12T11:51:28.738Z,3.5
2017-12-12T12:01:26.580Z,3.6
2017-12-12T12:11:26.212Z,3.9
2017-12-12T12:21:26.946Z,2.9
2017-12-12T12:31:26.145Z,2.9
2017-12-12T12:41:27.129Z,4.1
2017-12-12T12:51:26.706Z,3.5
2017-12-12T13:01:26.154Z,3.0
2017-12-12T13:11:26.479Z,2.6
2017-12-12T13:21:26.808Z,3.7
2017-12-12T13:31:27.121Z,3.3
2017-12-12T13:41:28.693Z,3.3
2017-12-12T13:51:26.036Z,2.7
2017-12-12T14:01:28.008Z,3.6
2017-12-12T14:11:26.255Z,2.3
2017-12-12T14:21:27.165Z,2.3
2017-12-12T14:31:26.726Z,2.5
2017-12-12T14:41:26.516Z,2.3
2017-12-12T14:51:26.489Z,2.7
2017-12-12T15:01:25.962Z,3.5
2017-12-12T15:11:27.991Z,3.4
2017-12-12T15:21:27.934Z,4.4
2017-12-12T15:31:27.620Z,4.8
2017-12-12T15:41:25.822Z,4.7
2017-12-12T15:51:27.354Z,4.9
2017-12-12T16:01:25.630Z,4.7
2017-12-12T16:11:26.487Z,4.2
2017-12-12T16:21:27.006Z,4.4
2017-12-12T16:31:27.004Z,3.2
2017-12-12T16:41:27.657Z,3.6
2017-12-12T16:51:26.283Z,5.5
2017-12-12T17:01:25.741Z,5.2
2017-12-12T17:11:26.244Z,6.2
2017-12-12T17:21:26.172Z,6.6
2017-12-12T17:31:26.346Z,5.9
2017-12-12T17:41:26.864Z,6.8
2017-12-12T17:51:28.138Z,6.2
2017-12-12T18:01:27.597Z,5.8
2017-12-12T18:11:26.347Z,5.6
2017-12-12T18:21:27.415Z,5.6
2017-12-12T18:31:25.777Z,7.0
2017-12-12T18:41:26.699Z,6.5
2017-12-12T18:51:26.264Z,4.8
2017-12-12T19:01:25.697Z,5.4
2017-12-12T19:11:26.138Z,6.8
2017-12-12T19:21:26.040Z,9.0
2017-12-12T19:31:26.749Z,9.1
2017-12-12T19:41:32.788Z,9.2
2017-12-12T19:51:26.221Z,10.2
2017-12-12T20:01:28.445Z,10.2
2017-12-12T20:11:26.100Z,10.8
2017-12-12T20:21:26.652Z,12.7
2017-12-12T20:31:31.640Z,6.4
2017-12-12T20:41:26.637Z,7.4
2017-12-12T20:51:28.496Z,6.8
2017-12-12T21:01:26.878Z,7.9
2017-12-12T21:11:26.306Z,8.2
2017-12-12T21:21:25.775Z,7.6
2017-12-12T21:31:28.154Z,6.0
2017-12-12T21:41:26.628Z,8.1
2017-12-12T21:51:26.410Z,8.6
2017-12-12T22:01:26.100Z,7.8
2017-12-12T22:11:26.227Z,6.9
2017-12-12T22:21:25.642Z,10.0
2017-12-12T22:31:26.925Z,7.1
2017-12-12T22:41:26.340Z,9.0
2017-12-12T22:51:27.268Z,8.0
2017-12-12T23:01:25.845Z,8.3
2017-12-12T23:11:27.820Z,8.5
2017-12-12T23:21:29.094Z,8.3
2017-12-12T23:31:26.789Z,9.6
2017-12-12T23:41:27.413Z,9.6
2017-12-12T23:51:25.531Z,9.1
